To NAV CANADA Home Page Login to a new session Search on AWWS site Feedback and Comments Disclaimer Vers la page française équivalente Tips FAQ What's new on the site To the Forecasts and Observations / NOTAM section To "File a Flight Plan" website Publications and other links Update of the User's profile FIC Telephone Numbers My Weather Data Folder Route Weather Data Regional Weather Data Local Weather Data To the Forecasts and Observations / NOTAM section
Request Generated 05/04/2016 at 09:51:29 UTC . Weather information available at that time is displayed.

METAR/TAF

BRANDON/BRANDON MUNICIPALITY/MB    

METAR CYBR 040900Z 35003KT 15SM SKC 00/M05 A3008 RMK SLP201=
METAR CYBR 040800Z 02003KT 15SM SKC 01/M04 A3009 RMK SLP202=
METAR CYBR 040700Z 36003KT 15SM SKC 02/M04 A3008 RMK SLP201=

TAF CYBR 040538Z 0406/0418 06006KT P6SM SKC
BECMG 0407/0409 VRB03KT
FM041300 20008KT P6SM SCT100
FM041700 22015KT P6SM SKC
RMK NXT FCST BY 041200Z=
Your time UTC time
Weather data provided by Environment Canada and NAV CANADA